sensor_id;sensor_type;location;lat;lon;timestamp;P1;durP1;ratioP1;P2;durP2;ratioP2
2772;SDS011;1394;47.044;15.744;2023-02-08T00:01:12;32.00;;;7.63;;
2772;SDS011;1394;47.044;15.744;2023-02-08T00:03:39;32.33;;;7.27;;
2772;SDS011;1394;47.044;15.744;2023-02-08T00:06:07;30.57;;;7.30;;
2772;SDS011;1394;47.044;15.744;2023-02-08T00:08:35;33.53;;;8.13;;
2772;SDS011;1394;47.044;15.744;2023-02-08T00:11:02;33.63;;;7.53;;
2772;SDS011;1394;47.044;15.744;2023-02-08T00:13:35;32.47;;;7.80;;
2772;SDS011;1394;47.044;15.744;2023-02-08T00:16:07;32.70;;;8.13;;
2772;SDS011;1394;47.044;15.744;2023-02-08T00:18:34;31.47;;;7.53;;
2772;SDS011;1394;47.044;15.744;2023-02-08T00:21:05;31.47;;;8.10;;
2772;SDS011;1394;47.044;15.744;2023-02-08T00:23:32;33.60;;;8.40;;
2772;SDS011;1394;47.044;15.744;2023-02-08T00:25:59;31.13;;;7.00;;
2772;SDS011;1394;47.044;15.744;2023-02-08T00:28:26;31.50;;;7.47;;
2772;SDS011;1394;47.044;15.744;2023-02-08T00:30:54;30.00;;;6.70;;
2772;SDS011;1394;47.044;15.744;2023-02-08T00:33:22;30.90;;;7.03;;
2772;SDS011;1394;47.044;15.744;2023-02-08T00:35:49;31.73;;;7.37;;
2772;SDS011;1394;47.044;15.744;2023-02-08T00:38:17;32.27;;;7.80;;
2772;SDS011;1394;47.044;15.744;2023-02-08T00:40:44;31.50;;;7.30;;
2772;SDS011;1394;47.044;15.744;2023-02-08T00:43:12;31.73;;;7.60;;
2772;SDS011;1394;47.044;15.744;2023-02-08T00:45:39;31.20;;;7.37;;
2772;SDS011;1394;47.044;15.744;2023-02-08T00:48:07;30.53;;;7.00;;
2772;SDS011;1394;47.044;15.744;2023-02-08T00:50:35;30.53;;;7.20;;
2772;SDS011;1394;47.044;15.744;2023-02-08T00:53:02;30.93;;;6.80;;
2772;SDS011;1394;47.044;15.744;2023-02-08T00:55:30;30.00;;;6.63;;
2772;SDS011;1394;47.044;15.744;2023-02-08T00:57:57;30.60;;;6.77;;
2772;SDS011;1394;47.044;15.744;2023-02-08T01:00:24;32.27;;;8.20;;
2772;SDS011;1394;47.044;15.744;2023-02-08T01:02:51;33.63;;;7.97;;
2772;SDS011;1394;47.044;15.744;2023-02-08T01:05:18;30.90;;;7.30;;
2772;SDS011;1394;47.044;15.744;2023-02-08T01:07:47;32.17;;;7.93;;
2772;SDS011;1394;47.044;15.744;2023-02-08T01:10:14;31.97;;;7.80;;
2772;SDS011;1394;47.044;15.744;2023-02-08T01:12:41;31.27;;;7.20;;
2772;SDS011;1394;47.044;15.744;2023-02-08T01:15:08;31.77;;;7.27;;
2772;SDS011;1394;47.044;15.744;2023-02-08T01:17:35;31.90;;;7.70;;
2772;SDS011;1394;47.044;15.744;2023-02-08T01:20:03;32.17;;;8.10;;
2772;SDS011;1394;47.044;15.744;2023-02-08T01:22:30;31.70;;;8.53;;
2772;SDS011;1394;47.044;15.744;2023-02-08T01:24:58;32.10;;;7.13;;
2772;SDS011;1394;47.044;15.744;2023-02-08T01:27:29;33.60;;;8.40;;
2772;SDS011;1394;47.044;15.744;2023-02-08T01:29:56;31.90;;;7.50;;
2772;SDS011;1394;47.044;15.744;2023-02-08T01:32:23;31.50;;;7.17;;
2772;SDS011;1394;47.044;15.744;2023-02-08T01:34:50;30.80;;;7.33;;
2772;SDS011;1394;47.044;15.744;2023-02-08T01:37:18;30.50;;;6.50;;
2772;SDS011;1394;47.044;15.744;2023-02-08T01:39:45;31.70;;;7.30;;
2772;SDS011;1394;47.044;15.744;2023-02-08T01:42:13;31.00;;;7.00;;
2772;SDS011;1394;47.044;15.744;2023-02-08T01:47:28;30.77;;;7.10;;
2772;SDS011;1394;47.044;15.744;2023-02-08T01:49:58;30.60;;;7.20;;
2772;SDS011;1394;47.044;15.744;2023-02-08T01:52:26;30.43;;;7.20;;
2772;SDS011;1394;47.044;15.744;2023-02-08T01:54:54;33.70;;;8.40;;
2772;SDS011;1394;47.044;15.744;2023-02-08T01:57:24;33.70;;;8.07;;
2772;SDS011;1394;47.044;15.744;2023-02-08T01:59:55;30.70;;;7.40;;
2772;SDS011;1394;47.044;15.744;2023-02-08T02:02:24;31.40;;;7.10;;
2772;SDS011;1394;47.044;15.744;2023-02-08T02:04:52;30.70;;;8.10;;
2772;SDS011;1394;47.044;15.744;2023-02-08T02:07:20;32.40;;;7.50;;
2772;SDS011;1394;47.044;15.744;2023-02-08T02:09:50;31.43;;;7.60;;
2772;SDS011;1394;47.044;15.744;2023-02-08T02:12:18;32.50;;;7.40;;
2772;SDS011;1394;47.044;15.744;2023-02-08T02:14:47;32.80;;;7.60;;
2772;SDS011;1394;47.044;15.744;2023-02-08T02:17:15;32.20;;;7.37;;
2772;SDS011;1394;47.044;15.744;2023-02-08T02:19:46;31.60;;;6.77;;
2772;SDS011;1394;47.044;15.744;2023-02-08T02:25:26;31.80;;;8.17;;
2772;SDS011;1394;47.044;15.744;2023-02-08T02:28:02;32.83;;;7.27;;
2772;SDS011;1394;47.044;15.744;2023-02-08T02:30:41;31.10;;;7.60;;
2772;SDS011;1394;47.044;15.744;2023-02-08T02:33:17;34.50;;;8.23;;
2772;SDS011;1394;47.044;15.744;2023-02-08T02:35:47;30.97;;;7.13;;
2772;SDS011;1394;47.044;15.744;2023-02-08T02:38:19;30.63;;;6.77;;
2772;SDS011;1394;47.044;15.744;2023-02-08T02:40:54;32.80;;;7.83;;
2772;SDS011;1394;47.044;15.744;2023-02-08T02:43:25;31.90;;;6.97;;
2772;SDS011;1394;47.044;15.744;2023-02-08T02:46:11;34.73;;;9.07;;
2772;SDS011;1394;47.044;15.744;2023-02-08T02:48:43;38.60;;;11.20;;
2772;SDS011;1394;47.044;15.744;2023-02-08T02:51:12;41.27;;;12.80;;
2772;SDS011;1394;47.044;15.744;2023-02-08T02:53:43;41.20;;;13.90;;
2772;SDS011;1394;47.044;15.744;2023-02-08T02:56:11;38.77;;;12.37;;
2772;SDS011;1394;47.044;15.744;2023-02-08T02:58:39;38.33;;;11.13;;
2772;SDS011;1394;47.044;15.744;2023-02-08T03:01:06;35.90;;;9.60;;
2772;SDS011;1394;47.044;15.744;2023-02-08T03:03:34;35.83;;;9.20;;
2772;SDS011;1394;47.044;15.744;2023-02-08T03:06:06;32.37;;;7.97;;
2772;SDS011;1394;47.044;15.744;2023-02-08T03:08:48;32.80;;;7.87;;
2772;SDS011;1394;47.044;15.744;2023-02-08T03:11:19;31.20;;;6.77;;
2772;SDS011;1394;47.044;15.744;2023-02-08T03:13:54;34.43;;;8.80;;
2772;SDS011;1394;47.044;15.744;2023-02-08T03:16:24;32.87;;;7.37;;
2772;SDS011;1394;47.044;15.744;2023-02-08T03:19:01;31.57;;;7.10;;
2772;SDS011;1394;47.044;15.744;2023-02-08T03:21:36;32.50;;;7.57;;
2772;SDS011;1394;47.044;15.744;2023-02-08T03:24:06;30.37;;;6.63;;
2772;SDS011;1394;47.044;15.744;2023-02-08T03:26:35;30.63;;;6.67;;
2772;SDS011;1394;47.044;15.744;2023-02-08T03:29:05;32.57;;;8.07;;
2772;SDS011;1394;47.044;15.744;2023-02-08T03:31:38;31.50;;;7.80;;
2772;SDS011;1394;47.044;15.744;2023-02-08T03:34:08;31.67;;;6.80;;
2772;SDS011;1394;47.044;15.744;2023-02-08T03:36:41;33.73;;;8.93;;
2772;SDS011;1394;47.044;15.744;2023-02-08T03:39:12;31.13;;;7.30;;
2772;SDS011;1394;47.044;15.744;2023-02-08T03:41:43;31.97;;;8.00;;
2772;SDS011;1394;47.044;15.744;2023-02-08T03:44:11;32.20;;;7.30;;
2772;SDS011;1394;47.044;15.744;2023-02-08T03:46:41;31.33;;;6.90;;
2772;SDS011;1394;47.044;15.744;2023-02-08T03:51:53;31.77;;;8.07;;
2772;SDS011;1394;47.044;15.744;2023-02-08T03:54:23;30.87;;;7.07;;
2772;SDS011;1394;47.044;15.744;2023-02-08T03:56:53;30.70;;;7.50;;
2772;SDS011;1394;47.044;15.744;2023-02-08T03:59:22;32.67;;;8.40;;
2772;SDS011;1394;47.044;15.744;2023-02-08T04:01:54;31.80;;;7.40;;
2772;SDS011;1394;47.044;15.744;2023-02-08T04:04:24;31.40;;;7.90;;
2772;SDS011;1394;47.044;15.744;2023-02-08T04:06:53;31.07;;;6.27;;
2772;SDS011;1394;47.044;15.744;2023-02-08T04:09:22;31.60;;;7.17;;
2772;SDS011;1394;47.044;15.744;2023-02-08T04:11:49;30.93;;;6.87;;
2772;SDS011;1394;47.044;15.744;2023-02-08T04:14:17;30.07;;;6.53;;
2772;SDS011;1394;47.044;15.744;2023-02-08T04:16:44;30.77;;;6.80;;
2772;SDS011;1394;47.044;15.744;2023-02-08T04:19:14;30.80;;;6.10;;
2772;SDS011;1394;47.044;15.744;2023-02-08T04:21:41;30.60;;;5.97;;
2772;SDS011;1394;47.044;15.744;2023-02-08T04:24:09;30.47;;;6.77;;
2772;SDS011;1394;47.044;15.744;2023-02-08T04:26:37;32.33;;;6.70;;
2772;SDS011;1394;47.044;15.744;2023-02-08T04:29:07;30.03;;;6.27;;
2772;SDS011;1394;47.044;15.744;2023-02-08T04:31:34;31.30;;;7.10;;
2772;SDS011;1394;47.044;15.744;2023-02-08T04:34:01;30.70;;;6.60;;
2772;SDS011;1394;47.044;15.744;2023-02-08T04:36:28;30.47;;;6.37;;
2772;SDS011;1394;47.044;15.744;2023-02-08T04:38:55;30.03;;;6.50;;
2772;SDS011;1394;47.044;15.744;2023-02-08T04:41:26;30.40;;;6.50;;
2772;SDS011;1394;47.044;15.744;2023-02-08T04:43:53;29.47;;;5.80;;
2772;SDS011;1394;47.044;15.744;2023-02-08T04:46:20;29.77;;;5.67;;
2772;SDS011;1394;47.044;15.744;2023-02-08T04:48:48;30.27;;;6.03;;
2772;SDS011;1394;47.044;15.744;2023-02-08T04:51:15;30.23;;;6.37;;
2772;SDS011;1394;47.044;15.744;2023-02-08T04:53:43;30.13;;;6.27;;
2772;SDS011;1394;47.044;15.744;2023-02-08T04:56:11;30.83;;;7.20;;
2772;SDS011;1394;47.044;15.744;2023-02-08T04:58:46;30.60;;;6.07;;
2772;SDS011;1394;47.044;15.744;2023-02-08T05:01:13;30.50;;;6.53;;
2772;SDS011;1394;47.044;15.744;2023-02-08T05:03:41;30.87;;;6.50;;
2772;SDS011;1394;47.044;15.744;2023-02-08T05:06:09;30.37;;;6.17;;
2772;SDS011;1394;47.044;15.744;2023-02-08T05:08:36;30.67;;;6.37;;
2772;SDS011;1394;47.044;15.744;2023-02-08T05:11:04;30.37;;;7.00;;
2772;SDS011;1394;47.044;15.744;2023-02-08T05:13:32;30.33;;;6.93;;
2772;SDS011;1394;47.044;15.744;2023-02-08T05:16:00;30.40;;;6.33;;
2772;SDS011;1394;47.044;15.744;2023-02-08T05:18:27;32.20;;;8.30;;
2772;SDS011;1394;47.044;15.744;2023-02-08T05:20:55;31.47;;;7.93;;
2772;SDS011;1394;47.044;15.744;2023-02-08T05:23:23;29.20;;;6.20;;
2772;SDS011;1394;47.044;15.744;2023-02-08T05:25:51;31.00;;;7.17;;
2772;SDS011;1394;47.044;15.744;2023-02-08T05:28:20;30.00;;;6.30;;
2772;SDS011;1394;47.044;15.744;2023-02-08T05:30:47;30.77;;;6.80;;
2772;SDS011;1394;47.044;15.744;2023-02-08T05:33:28;30.00;;;6.60;;
2772;SDS011;1394;47.044;15.744;2023-02-08T05:35:55;30.67;;;7.33;;
2772;SDS011;1394;47.044;15.744;2023-02-08T05:38:22;29.90;;;6.70;;
2772;SDS011;1394;47.044;15.744;2023-02-08T05:40:50;29.60;;;6.67;;
2772;SDS011;1394;47.044;15.744;2023-02-08T05:43:17;31.00;;;7.00;;
2772;SDS011;1394;47.044;15.744;2023-02-08T05:45:45;30.50;;;6.50;;
2772;SDS011;1394;47.044;15.744;2023-02-08T05:48:12;29.60;;;5.70;;
2772;SDS011;1394;47.044;15.744;2023-02-08T05:50:41;29.17;;;5.63;;
2772;SDS011;1394;47.044;15.744;2023-02-08T05:53:08;31.40;;;6.20;;
2772;SDS011;1394;47.044;15.744;2023-02-08T05:55:36;30.00;;;5.93;;
2772;SDS011;1394;47.044;15.744;2023-02-08T05:58:03;30.20;;;6.47;;
2772;SDS011;1394;47.044;15.744;2023-02-08T06:00:30;30.77;;;6.63;;
2772;SDS011;1394;47.044;15.744;2023-02-08T06:02:58;30.67;;;6.87;;
2772;SDS011;1394;47.044;15.744;2023-02-08T06:05:25;28.97;;;5.57;;
2772;SDS011;1394;47.044;15.744;2023-02-08T06:07:57;30.57;;;6.67;;
2772;SDS011;1394;47.044;15.744;2023-02-08T06:10:26;28.73;;;5.40;;
2772;SDS011;1394;47.044;15.744;2023-02-08T06:12:54;30.20;;;5.77;;
2772;SDS011;1394;47.044;15.744;2023-02-08T06:15:21;29.70;;;5.80;;
2772;SDS011;1394;47.044;15.744;2023-02-08T06:17:49;30.10;;;6.40;;
2772;SDS011;1394;47.044;15.744;2023-02-08T06:20:17;28.90;;;5.73;;
2772;SDS011;1394;47.044;15.744;2023-02-08T06:22:44;30.03;;;5.53;;
2772;SDS011;1394;47.044;15.744;2023-02-08T06:25:13;30.00;;;5.80;;
2772;SDS011;1394;47.044;15.744;2023-02-08T06:27:41;31.07;;;5.77;;
2772;SDS011;1394;47.044;15.744;2023-02-08T06:30:08;31.77;;;6.50;;
2772;SDS011;1394;47.044;15.744;2023-02-08T06:32:39;29.83;;;5.80;;
2772;SDS011;1394;47.044;15.744;2023-02-08T06:35:06;30.00;;;5.77;;
2772;SDS011;1394;47.044;15.744;2023-02-08T06:37:33;30.33;;;5.93;;
2772;SDS011;1394;47.044;15.744;2023-02-08T06:40:03;29.40;;;5.77;;
2772;SDS011;1394;47.044;15.744;2023-02-08T06:42:34;30.40;;;6.07;;
2772;SDS011;1394;47.044;15.744;2023-02-08T06:45:03;31.10;;;6.07;;
2772;SDS011;1394;47.044;15.744;2023-02-08T06:47:32;29.40;;;5.60;;
2772;SDS011;1394;47.044;15.744;2023-02-08T06:49:59;31.00;;;6.80;;
2772;SDS011;1394;47.044;15.744;2023-02-08T06:52:26;30.87;;;6.97;;
2772;SDS011;1394;47.044;15.744;2023-02-08T06:54:53;30.53;;;6.87;;
2772;SDS011;1394;47.044;15.744;2023-02-08T06:57:20;31.00;;;6.97;;
2772;SDS011;1394;47.044;15.744;2023-02-08T06:59:50;31.77;;;7.30;;
2772;SDS011;1394;47.044;15.744;2023-02-08T07:02:18;29.77;;;6.10;;
2772;SDS011;1394;47.044;15.744;2023-02-08T07:04:47;30.80;;;6.33;;
2772;SDS011;1394;47.044;15.744;2023-02-08T07:07:15;31.67;;;6.80;;
2772;SDS011;1394;47.044;15.744;2023-02-08T07:09:43;30.50;;;6.60;;
2772;SDS011;1394;47.044;15.744;2023-02-08T07:12:12;29.90;;;6.50;;
2772;SDS011;1394;47.044;15.744;2023-02-08T07:14:39;30.73;;;7.20;;
2772;SDS011;1394;47.044;15.744;2023-02-08T07:17:09;30.70;;;6.83;;
2772;SDS011;1394;47.044;15.744;2023-02-08T07:19:37;29.50;;;6.37;;
2772;SDS011;1394;47.044;15.744;2023-02-08T07:22:05;30.57;;;5.70;;
2772;SDS011;1394;47.044;15.744;2023-02-08T07:24:34;30.50;;;5.90;;
2772;SDS011;1394;47.044;15.744;2023-02-08T07:27:04;30.83;;;6.47;;
2772;SDS011;1394;47.044;15.744;2023-02-08T07:29:34;30.37;;;6.33;;
2772;SDS011;1394;47.044;15.744;2023-02-08T07:32:02;28.67;;;5.33;;
2772;SDS011;1394;47.044;15.744;2023-02-08T07:34:37;32.60;;;6.40;;
2772;SDS011;1394;47.044;15.744;2023-02-08T07:37:22;35.30;;;10.50;;
2772;SDS011;1394;47.044;15.744;2023-02-08T07:40:09;30.63;;;6.57;;
2772;SDS011;1394;47.044;15.744;2023-02-08T07:42:37;28.60;;;5.50;;
2772;SDS011;1394;47.044;15.744;2023-02-08T07:45:04;29.57;;;5.70;;
2772;SDS011;1394;47.044;15.744;2023-02-08T07:47:31;30.47;;;6.43;;
2772;SDS011;1394;47.044;15.744;2023-02-08T07:50:00;31.87;;;8.23;;
2772;SDS011;1394;47.044;15.744;2023-02-08T07:52:27;31.40;;;7.53;;
2772;SDS011;1394;47.044;15.744;2023-02-08T07:54:54;29.87;;;6.00;;
2772;SDS011;1394;47.044;15.744;2023-02-08T07:57:23;30.47;;;6.33;;
2772;SDS011;1394;47.044;15.744;2023-02-08T07:59:54;29.80;;;5.80;;
2772;SDS011;1394;47.044;15.744;2023-02-08T08:02:21;30.93;;;6.40;;
2772;SDS011;1394;47.044;15.744;2023-02-08T08:04:48;30.83;;;6.40;;
2772;SDS011;1394;47.044;15.744;2023-02-08T08:07:19;29.70;;;6.10;;
2772;SDS011;1394;47.044;15.744;2023-02-08T08:09:46;29.60;;;5.80;;
2772;SDS011;1394;47.044;15.744;2023-02-08T08:12:14;28.07;;;4.97;;
2772;SDS011;1394;47.044;15.744;2023-02-08T08:14:42;29.40;;;5.70;;
2772;SDS011;1394;47.044;15.744;2023-02-08T08:17:10;29.77;;;5.97;;
2772;SDS011;1394;47.044;15.744;2023-02-08T08:19:38;31.93;;;6.00;;
2772;SDS011;1394;47.044;15.744;2023-02-08T08:22:05;29.47;;;5.90;;
2772;SDS011;1394;47.044;15.744;2023-02-08T08:24:34;29.60;;;6.10;;
2772;SDS011;1394;47.044;15.744;2023-02-08T08:27:08;28.77;;;5.13;;
2772;SDS011;1394;47.044;15.744;2023-02-08T08:29:35;29.20;;;5.63;;
2772;SDS011;1394;47.044;15.744;2023-02-08T08:32:07;29.40;;;5.43;;
2772;SDS011;1394;47.044;15.744;2023-02-08T08:34:35;29.33;;;5.50;;
2772;SDS011;1394;47.044;15.744;2023-02-08T08:37:02;29.70;;;6.10;;
2772;SDS011;1394;47.044;15.744;2023-02-08T08:39:29;29.17;;;5.50;;
2772;SDS011;1394;47.044;15.744;2023-02-08T08:41:58;28.70;;;5.30;;
2772;SDS011;1394;47.044;15.744;2023-02-08T08:44:25;29.30;;;5.37;;
2772;SDS011;1394;47.044;15.744;2023-02-08T08:46:53;28.60;;;5.00;;
2772;SDS011;1394;47.044;15.744;2023-02-08T08:49:21;28.67;;;4.77;;
2772;SDS011;1394;47.044;15.744;2023-02-08T08:51:48;28.53;;;5.13;;
2772;SDS011;1394;47.044;15.744;2023-02-08T08:54:15;28.63;;;5.20;;
2772;SDS011;1394;47.044;15.744;2023-02-08T08:56:46;28.30;;;5.40;;
2772;SDS011;1394;47.044;15.744;2023-02-08T08:59:14;27.40;;;4.43;;
2772;SDS011;1394;47.044;15.744;2023-02-08T09:01:43;28.97;;;5.10;;
2772;SDS011;1394;47.044;15.744;2023-02-08T09:04:18;29.80;;;5.00;;
2772;SDS011;1394;47.044;15.744;2023-02-08T09:06:46;31.47;;;5.10;;
2772;SDS011;1394;47.044;15.744;2023-02-08T09:09:15;28.67;;;5.00;;
2772;SDS011;1394;47.044;15.744;2023-02-08T09:11:45;27.87;;;4.40;;
2772;SDS011;1394;47.044;15.744;2023-02-08T09:14:16;28.67;;;4.90;;
2772;SDS011;1394;47.044;15.744;2023-02-08T09:16:43;27.83;;;4.90;;
2772;SDS011;1394;47.044;15.744;2023-02-08T09:19:12;28.50;;;5.57;;
2772;SDS011;1394;47.044;15.744;2023-02-08T09:21:39;29.10;;;4.93;;
2772;SDS011;1394;47.044;15.744;2023-02-08T09:24:07;29.50;;;6.00;;
2772;SDS011;1394;47.044;15.744;2023-02-08T09:26:34;28.50;;;4.90;;
2772;SDS011;1394;47.044;15.744;2023-02-08T09:29:04;28.30;;;4.83;;
2772;SDS011;1394;47.044;15.744;2023-02-08T09:31:34;28.20;;;5.00;;
2772;SDS011;1394;47.044;15.744;2023-02-08T09:34:02;28.57;;;5.20;;
2772;SDS011;1394;47.044;15.744;2023-02-08T09:36:31;28.13;;;4.90;;
2772;SDS011;1394;47.044;15.744;2023-02-08T09:38:59;28.67;;;5.23;;
2772;SDS011;1394;47.044;15.744;2023-02-08T09:41:31;27.93;;;4.70;;
2772;SDS011;1394;47.044;15.744;2023-02-08T09:44:03;31.33;;;4.90;;
2772;SDS011;1394;47.044;15.744;2023-02-08T09:46:32;29.20;;;5.63;;
2772;SDS011;1394;47.044;15.744;2023-02-08T09:49:04;29.30;;;4.90;;
2772;SDS011;1394;47.044;15.744;2023-02-08T09:51:35;29.80;;;5.60;;
2772;SDS011;1394;47.044;15.744;2023-02-08T09:54:05;28.50;;;5.30;;
2772;SDS011;1394;47.044;15.744;2023-02-08T09:56:35;29.40;;;5.90;;
2772;SDS011;1394;47.044;15.744;2023-02-08T09:59:05;29.40;;;5.43;;
2772;SDS011;1394;47.044;15.744;2023-02-08T10:01:39;28.80;;;5.40;;
2772;SDS011;1394;47.044;15.744;2023-02-08T10:04:11;29.03;;;5.47;;
2772;SDS011;1394;47.044;15.744;2023-02-08T10:06:40;28.80;;;5.23;;
2772;SDS011;1394;47.044;15.744;2023-02-08T10:09:10;28.13;;;5.20;;
2772;SDS011;1394;47.044;15.744;2023-02-08T10:11:46;28.23;;;4.70;;
2772;SDS011;1394;47.044;15.744;2023-02-08T10:14:21;28.90;;;5.37;;
2772;SDS011;1394;47.044;15.744;2023-02-08T10:16:56;28.33;;;5.50;;
2772;SDS011;1394;47.044;15.744;2023-02-08T10:19:31;29.60;;;6.33;;
2772;SDS011;1394;47.044;15.744;2023-02-08T10:22:05;28.53;;;5.23;;
2772;SDS011;1394;47.044;15.744;2023-02-08T10:24:40;29.50;;;5.20;;
2772;SDS011;1394;47.044;15.744;2023-02-08T10:27:11;28.40;;;5.50;;
2772;SDS011;1394;47.044;15.744;2023-02-08T10:30:00;28.50;;;5.83;;
2772;SDS011;1394;47.044;15.744;2023-02-08T10:32:38;28.50;;;5.40;;
2772;SDS011;1394;47.044;15.744;2023-02-08T10:35:09;30.10;;;6.50;;
2772;SDS011;1394;47.044;15.744;2023-02-08T10:37:38;30.20;;;6.33;;
2772;SDS011;1394;47.044;15.744;2023-02-08T10:40:13;29.40;;;6.00;;
2772;SDS011;1394;47.044;15.744;2023-02-08T10:42:41;28.20;;;5.07;;
2772;SDS011;1394;47.044;15.744;2023-02-08T10:45:15;29.20;;;5.30;;
2772;SDS011;1394;47.044;15.744;2023-02-08T10:47:45;28.70;;;5.53;;
2772;SDS011;1394;47.044;15.744;2023-02-08T10:50:22;28.60;;;5.67;;
2772;SDS011;1394;47.044;15.744;2023-02-08T10:52:51;29.03;;;5.87;;
2772;SDS011;1394;47.044;15.744;2023-02-08T10:55:19;29.70;;;5.70;;
2772;SDS011;1394;47.044;15.744;2023-02-08T10:57:48;29.47;;;5.30;;
2772;SDS011;1394;47.044;15.744;2023-02-08T11:00:18;29.60;;;5.67;;
2772;SDS011;1394;47.044;15.744;2023-02-08T11:02:46;29.20;;;5.73;;
2772;SDS011;1394;47.044;15.744;2023-02-08T11:05:16;28.27;;;5.27;;
2772;SDS011;1394;47.044;15.744;2023-02-08T11:07:45;28.70;;;5.57;;
2772;SDS011;1394;47.044;15.744;2023-02-08T11:10:23;28.17;;;4.97;;
2772;SDS011;1394;47.044;15.744;2023-02-08T11:12:54;28.80;;;5.37;;
2772;SDS011;1394;47.044;15.744;2023-02-08T11:15:21;29.20;;;5.43;;
2772;SDS011;1394;47.044;15.744;2023-02-08T11:17:53;29.37;;;6.00;;
2772;SDS011;1394;47.044;15.744;2023-02-08T11:20:21;29.70;;;5.83;;
2772;SDS011;1394;47.044;15.744;2023-02-08T11:22:51;28.60;;;5.33;;
2772;SDS011;1394;47.044;15.744;2023-02-08T11:25:29;28.50;;;5.37;;
2772;SDS011;1394;47.044;15.744;2023-02-08T11:28:00;29.20;;;5.87;;
2772;SDS011;1394;47.044;15.744;2023-02-08T11:30:27;28.27;;;4.83;;
2772;SDS011;1394;47.044;15.744;2023-02-08T11:33:12;29.20;;;5.27;;
2772;SDS011;1394;47.044;15.744;2023-02-08T11:35:42;28.70;;;5.10;;
2772;SDS011;1394;47.044;15.744;2023-02-08T11:38:17;28.00;;;5.00;;
2772;SDS011;1394;47.044;15.744;2023-02-08T11:40:52;27.57;;;4.30;;
2772;SDS011;1394;47.044;15.744;2023-02-08T11:43:21;27.50;;;4.63;;
2772;SDS011;1394;47.044;15.744;2023-02-08T11:45:51;27.83;;;4.70;;
2772;SDS011;1394;47.044;15.744;2023-02-08T11:48:21;27.80;;;4.60;;
2772;SDS011;1394;47.044;15.744;2023-02-08T11:50:52;27.60;;;4.40;;
2772;SDS011;1394;47.044;15.744;2023-02-08T11:53:27;29.60;;;4.90;;
2772;SDS011;1394;47.044;15.744;2023-02-08T11:56:02;27.70;;;4.73;;
2772;SDS011;1394;47.044;15.744;2023-02-08T11:58:29;27.67;;;4.50;;
2772;SDS011;1394;47.044;15.744;2023-02-08T12:00:58;27.43;;;4.33;;
2772;SDS011;1394;47.044;15.744;2023-02-08T12:03:31;28.67;;;5.00;;
2772;SDS011;1394;47.044;15.744;2023-02-08T12:06:18;27.87;;;4.90;;
2772;SDS011;1394;47.044;15.744;2023-02-08T12:08:52;27.70;;;4.47;;
2772;SDS011;1394;47.044;15.744;2023-02-08T12:11:22;27.03;;;3.83;;
2772;SDS011;1394;47.044;15.744;2023-02-08T12:13:59;28.07;;;4.60;;
2772;SDS011;1394;47.044;15.744;2023-02-08T12:16:33;28.00;;;4.13;;
2772;SDS011;1394;47.044;15.744;2023-02-08T12:19:08;27.60;;;4.07;;
2772;SDS011;1394;47.044;15.744;2023-02-08T12:21:44;26.93;;;3.60;;
2772;SDS011;1394;47.044;15.744;2023-02-08T12:24:15;26.57;;;3.60;;
2772;SDS011;1394;47.044;15.744;2023-02-08T12:26:51;26.50;;;3.13;;
2772;SDS011;1394;47.044;15.744;2023-02-08T12:29:24;26.93;;;3.40;;
2772;SDS011;1394;47.044;15.744;2023-02-08T12:31:58;27.00;;;3.60;;
2772;SDS011;1394;47.044;15.744;2023-02-08T12:34:29;27.20;;;3.80;;
2772;SDS011;1394;47.044;15.744;2023-02-08T12:37:06;26.90;;;3.47;;
2772;SDS011;1394;47.044;15.744;2023-02-08T12:39:56;26.60;;;3.37;;
2772;SDS011;1394;47.044;15.744;2023-02-08T12:42:47;27.90;;;3.67;;
2772;SDS011;1394;47.044;15.744;2023-02-08T12:48:09;26.70;;;3.57;;
2772;SDS011;1394;47.044;15.744;2023-02-08T12:50:40;26.90;;;3.70;;
2772;SDS011;1394;47.044;15.744;2023-02-08T12:53:13;27.00;;;3.93;;
2772;SDS011;1394;47.044;15.744;2023-02-08T12:55:43;27.00;;;3.93;;
2772;SDS011;1394;47.044;15.744;2023-02-08T12:58:17;26.77;;;3.50;;
2772;SDS011;1394;47.044;15.744;2023-02-08T13:00:47;27.30;;;3.60;;
2772;SDS011;1394;47.044;15.744;2023-02-08T13:03:21;27.07;;;3.00;;
2772;SDS011;1394;47.044;15.744;2023-02-08T13:05:51;26.23;;;2.70;;
2772;SDS011;1394;47.044;15.744;2023-02-08T13:08:23;26.57;;;3.30;;
2772;SDS011;1394;47.044;15.744;2023-02-08T13:10:56;26.47;;;3.27;;
2772;SDS011;1394;47.044;15.744;2023-02-08T13:13:26;26.13;;;2.60;;
2772;SDS011;1394;47.044;15.744;2023-02-08T13:15:55;26.60;;;3.10;;
2772;SDS011;1394;47.044;15.744;2023-02-08T13:18:26;27.53;;;3.73;;
2772;SDS011;1394;47.044;15.744;2023-02-08T13:20:55;26.60;;;3.67;;
2772;SDS011;1394;47.044;15.744;2023-02-08T13:23:25;27.40;;;3.57;;
2772;SDS011;1394;47.044;15.744;2023-02-08T13:25:53;26.87;;;3.73;;
2772;SDS011;1394;47.044;15.744;2023-02-08T13:28:24;26.90;;;4.03;;
2772;SDS011;1394;47.044;15.744;2023-02-08T13:30:55;26.67;;;3.43;;
2772;SDS011;1394;47.044;15.744;2023-02-08T13:33:38;27.20;;;4.00;;
2772;SDS011;1394;47.044;15.744;2023-02-08T13:36:11;27.60;;;3.57;;
2772;SDS011;1394;47.044;15.744;2023-02-08T13:38:45;27.00;;;3.47;;
2772;SDS011;1394;47.044;15.744;2023-02-08T13:41:13;26.70;;;3.63;;
2772;SDS011;1394;47.044;15.744;2023-02-08T13:43:47;26.97;;;3.50;;
2772;SDS011;1394;47.044;15.744;2023-02-08T13:46:18;26.87;;;3.60;;
2772;SDS011;1394;47.044;15.744;2023-02-08T13:48:54;26.37;;;3.03;;
2772;SDS011;1394;47.044;15.744;2023-02-08T13:54:10;26.17;;;3.00;;
2772;SDS011;1394;47.044;15.744;2023-02-08T13:56:39;26.67;;;3.30;;
2772;SDS011;1394;47.044;15.744;2023-02-08T13:59:26;26.67;;;2.90;;
2772;SDS011;1394;47.044;15.744;2023-02-08T14:04:43;26.67;;;3.10;;
2772;SDS011;1394;47.044;15.744;2023-02-08T14:07:15;26.10;;;3.13;;
2772;SDS011;1394;47.044;15.744;2023-02-08T14:09:47;26.27;;;3.10;;
2772;SDS011;1394;47.044;15.744;2023-02-08T14:12:24;26.40;;;2.87;;
2772;SDS011;1394;47.044;15.744;2023-02-08T14:15:05;28.43;;;2.97;;
2772;SDS011;1394;47.044;15.744;2023-02-08T14:17:32;26.07;;;2.83;;
2772;SDS011;1394;47.044;15.744;2023-02-08T14:20:01;25.90;;;2.90;;
2772;SDS011;1394;47.044;15.744;2023-02-08T14:22:30;25.90;;;3.00;;
2772;SDS011;1394;47.044;15.744;2023-02-08T14:24:59;26.00;;;2.80;;
2772;SDS011;1394;47.044;15.744;2023-02-08T14:27:31;27.30;;;2.40;;
2772;SDS011;1394;47.044;15.744;2023-02-08T14:30:01;26.33;;;3.13;;
2772;SDS011;1394;47.044;15.744;2023-02-08T14:32:31;25.67;;;2.93;;
2772;SDS011;1394;47.044;15.744;2023-02-08T14:35:03;25.63;;;2.60;;
2772;SDS011;1394;47.044;15.744;2023-02-08T14:37:32;26.00;;;3.03;;
2772;SDS011;1394;47.044;15.744;2023-02-08T14:42:53;26.37;;;2.77;;
2772;SDS011;1394;47.044;15.744;2023-02-08T14:45:25;25.60;;;2.37;;
2772;SDS011;1394;47.044;15.744;2023-02-08T14:48:15;25.30;;;2.73;;
2772;SDS011;1394;47.044;15.744;2023-02-08T14:53:35;26.03;;;3.10;;
2772;SDS011;1394;47.044;15.744;2023-02-08T14:56:05;26.60;;;3.57;;
2772;SDS011;1394;47.044;15.744;2023-02-08T14:58:40;26.00;;;2.90;;
2772;SDS011;1394;47.044;15.744;2023-02-08T15:01:12;26.30;;;3.20;;
2772;SDS011;1394;47.044;15.744;2023-02-08T15:03:41;25.63;;;2.73;;
2772;SDS011;1394;47.044;15.744;2023-02-08T15:06:29;25.90;;;2.70;;
2772;SDS011;1394;47.044;15.744;2023-02-08T15:09:00;26.43;;;3.20;;
2772;SDS011;1394;47.044;15.744;2023-02-08T15:11:33;27.97;;;3.43;;
2772;SDS011;1394;47.044;15.744;2023-02-08T15:14:01;26.60;;;3.43;;
2772;SDS011;1394;47.044;15.744;2023-02-08T15:16:32;26.10;;;3.20;;
2772;SDS011;1394;47.044;15.744;2023-02-08T15:19:01;26.90;;;3.30;;
2772;SDS011;1394;47.044;15.744;2023-02-08T15:21:31;26.33;;;3.17;;
2772;SDS011;1394;47.044;15.744;2023-02-08T15:24:12;26.93;;;3.43;;
2772;SDS011;1394;47.044;15.744;2023-02-08T15:26:44;26.57;;;3.27;;
2772;SDS011;1394;47.044;15.744;2023-02-08T15:29:17;26.77;;;3.90;;